createdAt,value
2022-11-26T00:04:45.834Z,2.50
2022-11-26T00:14:49.597Z,2.50
2022-11-26T00:24:55.602Z,2.40
2022-11-26T00:34:59.054Z,2.30
2022-11-26T00:45:03.950Z,2.20
2022-11-26T00:55:22.465Z,2.10
2022-11-26T01:05:30.694Z,2.00
2022-11-26T01:15:34.259Z,1.90
2022-11-26T01:25:39.642Z,1.70
2022-11-26T01:35:43.063Z,1.80
2022-11-26T01:45:48.006Z,1.90
2022-11-26T01:55:55.072Z,2.00
2022-11-26T02:06:06.992Z,2.00
2022-11-26T02:16:20.405Z,2.10
2022-11-26T02:26:49.527Z,2.10
2022-11-26T02:37:00.221Z,2.20
2022-11-26T02:47:07.036Z,2.20
2022-11-26T02:57:16.262Z,2.20
2022-11-26T03:07:20.096Z,2.20
2022-11-26T03:17:24.937Z,2.20
2022-11-26T03:27:28.680Z,2.10
2022-11-26T03:37:33.553Z,2.10
2022-11-26T03:47:37.011Z,1.90
2022-11-26T03:57:41.933Z,1.90
2022-11-26T04:07:45.522Z,1.90
2022-11-26T04:17:50.336Z,1.80
2022-11-26T04:27:53.924Z,1.60
2022-11-26T04:37:58.700Z,1.30
2022-11-26T04:48:02.175Z,0.70
2022-11-26T04:58:07.384Z,0.30
2022-11-26T05:08:10.799Z,-0.20
2022-11-26T05:18:16.759Z,-0.40
2022-11-26T05:28:20.227Z,-0.40
2022-11-26T05:38:25.170Z,-0.70
2022-11-26T05:48:28.649Z,-0.80
2022-11-26T05:58:33.834Z,-1.10
2022-11-26T06:08:37.369Z,-1.30
2022-11-26T06:18:42.275Z,-1.20
2022-11-26T06:28:45.758Z,-1.20
2022-11-26T06:38:50.715Z,-1.10
2022-11-26T06:48:54.261Z,-0.80
2022-11-26T06:58:59.452Z,-0.70
2022-11-26T07:09:07.297Z,-0.20
2022-11-26T07:19:15.343Z,0.90
2022-11-26T07:29:18.854Z,1.90
2022-11-26T07:39:23.726Z,1.80
2022-11-26T07:49:27.322Z,2.10
2022-11-26T07:59:32.319Z,2.90
2022-11-26T08:09:35.890Z,3.30
2022-11-26T08:19:40.796Z,3.60
2022-11-26T08:29:44.317Z,3.50
2022-11-26T08:39:49.141Z,3.80
2022-11-26T08:49:52.661Z,4.20
2022-11-26T08:59:57.513Z,4.30
2022-11-26T09:10:01.470Z,4.60
2022-11-26T09:20:08.264Z,5.10
2022-11-26T09:30:13.780Z,6.10
2022-11-26T09:40:21.219Z,5.90
2022-11-26T09:50:31.749Z,5.70
2022-11-26T10:00:40.958Z,5.40
2022-11-26T10:10:54.636Z,5.00
2022-11-26T10:21:32.312Z,4.80
2022-11-26T10:31:48.418Z,4.90
2022-11-26T10:41:53.329Z,5.00
2022-11-26T10:52:01.805Z,5.20
2022-11-26T11:02:22.677Z,5.10
2022-11-26T11:12:26.521Z,5.20
2022-11-26T11:22:31.640Z,5.10
2022-11-26T11:32:38.192Z,5.10
2022-11-26T11:42:46.173Z,5.20
2022-11-26T11:53:03.254Z,5.20
2022-11-26T12:03:34.989Z,5.30
2022-11-26T12:13:47.851Z,5.40
2022-11-26T12:23:58.681Z,5.60
2022-11-26T12:34:08.987Z,5.60
2022-11-26T12:44:21.147Z,5.40
2022-11-26T12:54:33.051Z,5.40
2022-11-26T13:04:38.433Z,5.50
2022-11-26T13:14:48.018Z,5.70
2022-11-26T13:25:14.665Z,5.60
2022-11-26T13:35:30.369Z,5.40
2022-11-26T13:46:05.777Z,5.30
2022-11-26T13:56:11.977Z,5.20
2022-11-26T14:06:17.023Z,5.00
2022-11-26T14:16:20.562Z,5.00
2022-11-26T14:26:31.608Z,4.90
2022-11-26T14:36:35.870Z,4.90
2022-11-26T14:46:42.422Z,4.80
2022-11-26T14:56:47.108Z,4.80
2022-11-26T15:06:52.314Z,4.80
2022-11-26T15:17:02.012Z,4.80
2022-11-26T15:27:07.258Z,4.80
2022-11-26T15:37:11.203Z,4.80
2022-11-26T15:47:21.352Z,4.80
2022-11-26T15:57:29.953Z,4.70
2022-11-26T16:07:35.099Z,4.80
2022-11-26T16:17:38.685Z,4.80
2022-11-26T16:27:49.140Z,4.80
2022-11-26T16:37:54.213Z,4.70
2022-11-26T16:47:59.099Z,4.80
2022-11-26T16:58:03.378Z,4.80
2022-11-26T17:08:12.881Z,4.80
2022-11-26T17:18:20.806Z,4.80
2022-11-26T17:28:26.584Z,4.80
2022-11-26T17:38:30.495Z,4.70
2022-11-26T17:48:35.357Z,4.60
2022-11-26T17:58:39.209Z,4.60
2022-11-26T18:08:44.716Z,4.60
2022-11-26T18:18:48.546Z,4.60
2022-11-26T18:28:53.364Z,4.60
2022-11-26T18:38:57.737Z,4.50
2022-11-26T18:49:02.966Z,4.40
2022-11-26T18:59:06.605Z,4.30
2022-11-26T19:09:18.399Z,4.20
2022-11-26T19:19:22.049Z,4.00
2022-11-26T19:29:27.033Z,3.80
2022-11-26T19:39:30.714Z,3.70
2022-11-26T19:49:36.704Z,3.60
2022-11-26T19:59:40.546Z,3.40
2022-11-26T20:09:45.720Z,3.30
2022-11-26T20:19:49.225Z,3.40
2022-11-26T20:29:54.070Z,3.40
2022-11-26T20:39:57.793Z,3.40
2022-11-26T20:50:02.688Z,3.30
2022-11-26T21:00:09.130Z,3.20
2022-11-26T21:10:15.873Z,3.20
2022-11-26T21:20:19.470Z,3.10
2022-11-26T21:30:24.493Z,3.10
2022-11-26T21:40:28.970Z,3.00
2022-11-26T21:50:34.012Z,3.00
2022-11-26T22:00:38.508Z,3.10
2022-11-26T22:10:44.804Z,3.00
2022-11-26T22:20:52.477Z,3.00
2022-11-26T22:30:57.540Z,3.00
2022-11-26T22:41:03.956Z,2.90
2022-11-26T22:51:09.326Z,2.80
2022-11-26T23:01:20.101Z,2.70
2022-11-26T23:11:27.546Z,2.60
2022-11-26T23:21:34.279Z,2.60
2022-11-26T23:31:42.065Z,2.60
2022-11-26T23:41:45.652Z,2.50
2022-11-26T23:51:50.613Z,2.40
